Terminal Aerodrome Forecast
Issued by NWS Portland, OR

Home | Current Version | Previous Version | Text Only | Print | Product List | Glossary On
Versions: 1 2 3 4 5 6 7 8 9 10 11 12 13 14 15 16 17 18 19 20 21 22 23 24 25 26 27 28 29 30 31 32 33 34 35 36 37 38 39 40 41 42 43 44 45 46 47 48 49 50
000
FTUS46 KPQR 212011 AAA
TAFPDX
TAF AMD
KPDX 212011Z 2120/2218 13014KT 5SM -RA BR BKN015 OVC025
     FM212200 16015G23KT 5SM RA BR BKN015 OVC025
     FM220100 19022G32KT 6SM -RA BR OVC025
     FM220500 19025G35KT 5SM RA BR BKN015 OVC025
     FM221200 20018G28KT P6SM -RA SCT012 OVC025=

USA.gov is the U.S. government's official web portal to all federal, state and local government web resources and services.